Weather observations for the past three days for
Jasper, Jasper County-Bell Field Airport
| Date | Time (cdt) | Wind (mph) | Vis. (mi.) | Weather | Sky Cond. | Temperature (ºF) | Relative Humidity | Wind Chill (°F) | Heat Index (°F) | Pressure | Precipitation (in) | ||||||
|---|---|---|---|---|---|---|---|---|---|---|---|---|---|---|---|---|---|
| Air | Dwpt | 6 hour | altimeter (in) | sea level (mb) | 1 hr | 3 hr | 6 hr | ||||||||||
| Max. | Min. | ||||||||||||||||
| 08 | 06:15 | Calm | 10.00 | Thunderstorm in Vicinity | OVC024 | 64.4 | 62.6 | 94% | 29.93 | 0.0 | |||||||
| 08 | 05:55 | Vrbl 3 | 10.00 | Thunderstorm in Vicinity | OVC026 | 64.4 | 62.6 | 94% | 29.94 | 0.0 | |||||||
| 08 | 05:35 | Calm | 10.00 | Overcast | OVC026 | 64.4 | 62.6 | 94% | 29.94 | 0.0 | |||||||
| 08 | 05:15 | E 3 | 10.00 | Overcast | OVC028 | 64.4 | 62.6 | 94% | 29.94 | 0.0 | |||||||
| 08 | 04:55 | E 5 | 10.00 | NULL | NULL | 64.4 | 62.6 | 94% | 29.94 | 0.0 | |||||||
| 08 | 04:35 | E 3 | 10.00 | NULL | NULL | 64.4 | 62.6 | 94% | 29.93 | 0.0 | |||||||
| 08 | 04:15 | NE 5 | 10.00 | Overcast | OVC030 | 64.4 | 62.6 | 94% | 29.94 | 0.0 | |||||||
| 08 | 03:55 | Vrbl 3 | 10.00 | Overcast | OVC031 | 64.4 | 62.6 | 94% | 29.93 | 0.0 | |||||||
| 08 | 03:35 | NE 3 | 10.00 | Overcast | OVC034 | 62.6 | 62.6 | 100% | 29.94 | 0.0 | |||||||
| 08 | 03:15 | NE 3 | 10.00 | Overcast | OVC036 | 62.6 | 62.6 | 100% | 29.94 | 0.0 | |||||||
| 08 | 02:35 | Calm | 10.00 | Overcast | BKN042 OVC050 | 64.4 | 62.6 | 94% | 29.95 | 0.0 | |||||||
| 08 | 02:15 | NE 5 | 10.00 | Overcast | BKN043 OVC050 | 64.4 | 62.6 | 94% | 29.95 | 0.0 | |||||||
| 08 | 01:55 | Calm | 10.00 | Overcast | OVC045 | 64.4 | 62.6 | 94% | 29.97 | 0.0 | |||||||
| 08 | 01:35 | E 5 | 10.00 | Overcast | OVC043 | 64.4 | 62.6 | 94% | 29.96 | 0.0 | |||||||
| 08 | 01:15 | Vrbl 5 | 10.00 | Overcast | BKN038 OVC044 | 64.4 | 62.6 | 94% | 29.94 | 0.0 | |||||||
| 08 | 00:55 | NE 6 | 10.00 | Overcast | OVC038 | 64.4 | 62.6 | 94% | 29.95 | 0.0 | |||||||
| 08 | 00:35 | Calm | 10.00 | Overcast | OVC038 | 64.4 | 62.6 | 94% | 29.97 | 0.0 | |||||||
| 08 | 00:15 | N 3 | 10.00 | Overcast | OVC036 | 64.4 | 62.6 | 94% | 29.97 | 0.0 | |||||||
| 07 | 23:55 | Calm | 10.00 | Overcast | OVC036 | 64.4 | 62.6 | 94% | 29.94 | 0.0 | |||||||
| 07 | 23:35 | Vrbl 6 | 10.00 | Overcast | OVC039 | 64.4 | 62.6 | 94% | 29.95 | 0.0 | |||||||
| 07 | 23:15 | E 3 | 10.00 | Overcast | OVC040 | 64.4 | 62.6 | 94% | 29.98 | 0.0 | |||||||
| 07 | 22:55 | E 3 | 10.00 | Overcast | OVC042 | 64.4 | 62.6 | 94% | 29.97 | 0.0 | |||||||
| 07 | 22:35 | NE 3 | 10.00 | Overcast | OVC043 | 64.4 | 62.6 | 94% | 29.97 | 0.0 | |||||||
| 07 | 21:55 | N 6 | 10.00 | NULL | NULL | 66.2 | 62.6 | 88% | 29.98 | 0.0 | |||||||
| 07 | 21:35 | Calm | 10.00 | Overcast | BKN048 OVC055 | 64.4 | 62.6 | 94% | 29.97 | 0.0 | |||||||
| 07 | 21:15 | Calm | 10.00 | Overcast | OVC048 | 66.2 | 60.8 | 83% | 29.96 | 0.0 | |||||||
| 07 | 20:55 | Calm | 9.00 | NULL | NULL | 66.2 | 60.8 | 83% | 29.96 | 0.0 | |||||||
| 07 | 20:35 | Calm | 10.00 | NULL | NULL | 66.2 | 60.8 | 83% | 29.96 | 0.0 | |||||||
| 07 | 20:15 | N 7 | 10.00 | Fair | CLR | 66.2 | 60.8 | 83% | 29.97 | 0.0 | |||||||
| 07 | 19:55 | Calm | 10.00 | Fair | CLR | 68 | 60.8 | 78% | 29.96 | 0.0 | |||||||
| 07 | 19:35 | Calm | 10.00 | Fair | CLR | 68 | 59 | 73% | 29.95 | 0.0 | |||||||
| 07 | 19:15 | E 5 | 10.00 | Fair | CLR | 69.8 | 60.8 | 73% | 29.93 | 0.0 | |||||||
| 07 | 18:55 | NE 7 | 10.00 | Fair | CLR | 69.8 | 60.8 | 73% | 29.94 | 0.0 | |||||||
| 07 | 18:35 | Calm | 10.00 | Fair | CLR | 69.8 | 60.8 | 73% | 29.95 | 0.0 | |||||||
| 07 | 18:15 | N 10 | 10.00 | Fair | CLR | 71.6 | 60.8 | 69% | 29.96 | 0.0 | |||||||
| 07 | 17:55 | N 8 | 10.00 | Fair | CLR | 73.4 | 60.8 | 65% | 29.97 | 0.0 | |||||||
| 07 | 17:35 | N 8 | 10.00 | Fair | CLR | 73.4 | 60.8 | 65% | 29.95 | 0.0 | |||||||
| 07 | 17:15 | NE 7 | 10.00 | Fair | CLR | 75.2 | 59 | 57% | 78 | 29.94 | 0.0 | ||||||
| 07 | 16:55 | NE 7 | 10.00 | Fair | CLR | 75.2 | 59 | 57% | 78 | 29.95 | 0.0 | ||||||
| 07 | 16:35 | NE 8 | 10.00 | Fair | CLR | 75.2 | 59 | 57% | 78 | 29.96 | 0.0 | ||||||
| 07 | 16:15 | NE 8 | 10.00 | Fair | CLR | 77 | 59 | 54% | 79 | 29.96 | 0.0 | ||||||
| 07 | 15:55 | Vrbl 7 | 10.00 | Fair | CLR | 77 | 59 | 54% | 79 | 29.96 | 0.0 | ||||||
| 07 | 15:35 | Vrbl 7 G 16 | 10.00 | Fair | CLR | 75.2 | 59 | 57% | 78 | 29.97 | 0.0 | ||||||
| 07 | 15:15 | N 13 | 10.00 | Fair | CLR | 77 | 59 | 54% | 79 | 29.96 | 0.0 | ||||||
| 07 | 14:35 | NE 8 G 14 | 10.00 | Fair | CLR | 75.2 | 60.8 | 61% | 77 | 29.98 | 0.0 | ||||||
| 07 | 14:15 | NE 8 | 10.00 | Fair | CLR | 75.2 | 60.8 | 61% | 77 | 29.98 | 0.0 | ||||||
| 07 | 13:55 | Vrbl 7 | 10.00 | Fair | CLR | 75.2 | 60.8 | 61% | 77 | 29.99 | 0.0 | ||||||
| 07 | 13:35 | NE 8 G 15 | 10.00 | Fair | CLR | 75.2 | 60.8 | 61% | 77 | 29.99 | 0.0 | ||||||
| 07 | 13:15 | NE 9 | 10.00 | Fair | CLR | 75.2 | 62.6 | 65% | 77 | 30.01 | 0.0 | ||||||
| 07 | 12:55 | Vrbl 5 G 13 | 10.00 | Fair | CLR | 71.6 | 60.8 | 69% | 30.01 | 0.0 | |||||||
| 07 | 12:15 | N 13 | 10.00 | Fair | CLR | 71.6 | 60.8 | 69% | 30 | 0.0 | |||||||
| 07 | 11:55 | N 8 | 10.00 | Fair | CLR | 69.8 | 60.8 | 73% | 30.01 | 0.0 | |||||||
| 07 | 11:35 | N 9 | 10.00 | Fair | CLR | 68 | 60.8 | 78% | 30.01 | 0.0 | |||||||
| 07 | 10:55 | N 15 | 10.00 | Mostly Cloudy | BKN017 | 66.2 | 60.8 | 83% | 30.02 | 0.0 | |||||||
| 07 | 10:35 | N 10 | 10.00 | Partly Cloudy | SCT017 SCT044 | 64.4 | 59 | 83% | 30.02 | 0.0 | |||||||
| 07 | 10:15 | N 6 G 13 | 10.00 | Mostly Cloudy | SCT013 BKN044 | 62.6 | 59 | 88% | 30.03 | 0.0 | |||||||
| 07 | 09:55 | N 7 | 10.00 | Overcast | OVC013 | 60.8 | 59 | 94% | 30.04 | 0.0 | |||||||
| 07 | 09:35 | N 10 G 16 | 10.00 | Overcast | OVC013 | 60.8 | 57.2 | 88% | 30.04 | 0.0 | |||||||
| 07 | 09:15 | N 9 | 10.00 | Overcast | OVC013 | 60.8 | 57.2 | 88% | 30.04 | 0.0 | |||||||
| 07 | 08:55 | N 10 | 10.00 | Overcast | OVC011 | 59 | 57.2 | 94% | 30.03 | 0.0 | |||||||
| 07 | 08:35 | N 7 | 10.00 | Overcast | OVC009 | 59 | 57.2 | 94% | 30.02 | 0.0 | |||||||
| 07 | 08:15 | N 7 G 13 | 10.00 | Overcast | OVC008 | 59 | 57.2 | 94% | 30.02 | 0.0 | |||||||
| 07 | 07:55 | N 6 | 10.00 | Overcast | OVC008 | 59 | 57.2 | 94% | 30.01 | 0.0 | |||||||
| 07 | 07:35 | N 10 | 10.00 | Overcast | OVC008 | 57.2 | 57.2 | 100% | 30.01 | 0.0 | |||||||
| 07 | 07:15 | N 7 G 15 | 10.00 | Overcast | OVC007 | 57.2 | 57.2 | 100% | 29.99 | 0.0 | |||||||
| 07 | 06:55 | N 9 | 10.00 | Overcast | OVC007 | 57.2 | 57.2 | 100% | 29.99 | 0.0 | |||||||
| 07 | 06:35 | N 7 | 10.00 | Overcast | OVC008 | 57.2 | 57.2 | 100% | 29.98 | 0.0 | |||||||
| 07 | 05:55 | NE 6 | 10.00 | NULL | NULL | 59 | 57.2 | 94% | 29.95 | 0.0 | |||||||
| 07 | 05:35 | NE 6 G 13 | 10.00 | NULL | NULL | 57.2 | 57.2 | 100% | 29.94 | 0.0 | |||||||
| 07 | 05:15 | N 6 G 12 | 10.00 | NULL | NULL | 57.2 | 57.2 | 100% | 29.95 | 0.0 | |||||||
| 07 | 04:55 | NE 8 | 10.00 | NULL | NULL | 57.2 | 57.2 | 100% | 29.96 | 0.0 | |||||||
| 07 | 04:35 | N 7 G 17 | 10.00 | Overcast | OVC006 | 57.2 | 57.2 | 100% | 29.95 | 0.0 | |||||||
| 07 | 04:15 | N 10 G 17 | 10.00 | Overcast | OVC005 | 57.2 | 57.2 | 100% | 29.96 | 0.0 | |||||||
| 07 | 03:55 | N 8 G 16 | 8.00 | Overcast | OVC005 | 59 | 59 | 100% | 29.95 | 0.0 | |||||||
| 07 | 03:35 | N 12 | 8.00 | Overcast | OVC006 | 59 | 59 | 100% | 29.95 | 0.0 | |||||||
| 07 | 03:15 | N 10 G 17 | 9.00 | Overcast | OVC006 | 59 | 59 | 100% | 29.96 | 0.0 | |||||||
| 07 | 02:55 | N 12 G 18 | 7.00 | Overcast | OVC006 | 59 | 59 | 100% | 29.96 | 0.0 | |||||||
| 07 | 02:35 | N 12 G 17 | 7.00 | NULL | NULL | 59 | 59 | 100% | 29.95 | 0.0 | |||||||
| 07 | 02:15 | N 8 G 18 | 6.00 | Fog/Mist | NULL | 60.8 | 60.8 | 100% | 29.94 | 0.0 | |||||||
| 07 | 01:55 | N 12 G 20 | 7.00 | Overcast | OVC007 | 60.8 | 60.8 | 100% | 29.95 | 0.0 | |||||||
| 07 | 01:35 | N 14 | 7.00 | Overcast | OVC008 | 62.6 | 60.8 | 94% | 29.93 | 0.0 | |||||||
| 07 | 01:15 | N 10 | 7.00 | Overcast | OVC008 | 62.6 | 62.6 | 100% | 29.95 | 0.0 | |||||||
| 07 | 00:55 | N 9 | 7.00 | Overcast | OVC008 | 62.6 | 62.6 | 100% | 29.95 | 0.0 | |||||||
| 07 | 00:35 | N 12 | 7.00 | Overcast | OVC009 | 64.4 | 62.6 | 94% | 29.93 | 0.0 | |||||||
| 07 | 00:15 | N 9 G 15 | 7.00 | Overcast | OVC009 | 64.4 | 62.6 | 94% | 29.93 | 0.0 | |||||||
| 06 | 23:35 | N 10 | 7.00 | Overcast | BKN009 BKN012 OVC017 | 64.4 | 64.4 | 100% | 29.93 | 0.0 | |||||||
| 06 | 23:15 | N 8 G 14 | 7.00 | Overcast | OVC009 | 66.2 | 66.2 | 100% | 29.93 | 0.0 | |||||||
| 06 | 22:55 | N 10 | 7.00 | Overcast | OVC010 | 66.2 | 66.2 | 100% | 29.91 | 0.0 | |||||||
| 06 | 22:35 | N 12 | 7.00 | Overcast | OVC009 | 68 | 66.2 | 94% | 29.91 | 0.0 | |||||||
| 06 | 22:15 | N 9 | 7.00 | NULL | NULL | 68 | 68 | 100% | 29.9 | 0.0 | |||||||
| 06 | 21:55 | N 12 | 8.00 | Overcast | OVC010 | 68 | 68 | 100% | 29.88 | 0.0 | |||||||
| 06 | 21:35 | N 13 | 8.00 | Overcast | BKN010 OVC020 | 69.8 | 69.8 | 100% | 29.87 | 0.0 | |||||||
| 06 | 20:55 | N 13 G 21 | 6.00 | Fog/Mist | FEW009 OVC017 | 71.6 | 71.6 | 100% | 29.85 | 0.0 | |||||||
| 06 | 20:15 | Calm | 2.50 | Fog/Mist | SCT016 BKN021 OVC032 | 77 | 77 | 100% | 78 | 29.81 | 0.0 | ||||||
| 06 | 19:55 | Calm | 2.50 | Fog/Mist | BKN018 OVC027 | 77 | 77 | 100% | 78 | 29.8 | 0.0 | ||||||
| 06 | 19:35 | Calm | 3.00 | Fog/Mist | FEW016 SCT021 BKN027 | 77 | 77 | 100% | 78 | 29.8 | 0.0 | ||||||
| 06 | 19:15 | Calm | 2.50 | Fog/Mist | BKN019 BKN025 OVC043 | 77 | 77 | 100% | 78 | 29.8 | 0.0 | ||||||
| 06 | 18:55 | Calm | 2.00 | Light Rain Fog/Mist | FEW013 BKN020 OVC026 | 77 | 77 | 100% | 78 | 29.8 | 0.0 | 0.01 | |||||
| 06 | 18:35 | SW 6 G 12 | 2.50 | Light Rain Fog/Mist | FEW013 BKN021 OVC028 | 78.8 | 78.8 | 100% | 83 | 29.8 | 0.0 | ||||||
| 06 | 18:15 | NW 5 | 3.00 | Fog/Mist | BKN024 BKN029 BKN035 | 80.6 | 78.8 | 94% | 88 | 29.79 | 0.0 | ||||||
| 06 | 17:55 | Calm | 3.00 | Fog/Mist | CLR | 80.6 | 78.8 | 94% | 88 | 29.78 | 0.0 | ||||||
| 06 | 17:35 | Calm | 3.00 | Fog/Mist | SCT023 SCT047 | 80.6 | 78.8 | 94% | 88 | 29.78 | 0.0 | ||||||
| 06 | 17:15 | Calm | 3.00 | Fog/Mist | BKN024 BKN033 | 80.6 | 78.8 | 94% | 88 | 29.78 | 0.0 | ||||||
| 06 | 16:55 | Calm | 3.00 | Fog/Mist | FEW036 | 80.6 | 77 | 89% | 87 | 29.78 | 0.0 | ||||||
| 06 | 16:35 | NW 3 | 4.00 | Fog/Mist | FEW036 | 80.6 | 78.8 | 94% | 88 | 29.79 | 0.0 | ||||||
| 06 | 16:15 | Calm | 3.00 | Fog/Mist | FEW032 SCT037 | 80.6 | 78.8 | 94% | 88 | 29.79 | 0.0 | ||||||
| 06 | 15:55 | Calm | 3.00 | Light Rain Fog/Mist | SCT013 BKN034 | 78.8 | 78.8 | 100% | 83 | 29.8 | 0.0 | 0.01 | |||||
| 06 | 15:35 | Calm | 3.00 | Fog/Mist | FEW013 SCT038 | 78.8 | 77 | 94% | 83 | 29.8 | 0.0 | ||||||
| 06 | 15:15 | Calm | 4.00 | Fog/Mist | FEW017 SCT021 SCT027 | 78.8 | 77 | 94% | 83 | 29.8 | 0.0 | ||||||
| 06 | 14:55 | SW 3 | 0.75 | Heavy Rain Fog/Mist | SCT003 BKN017 OVC023 | 77 | 77 | 100% | 78 | 29.81 | 0.0 | 0.05 | |||||
| 06 | 14:35 | Calm | 1.50 | Light Rain Fog/Mist | SCT027 BKN034 | 78.8 | 77 | 94% | 83 | 29.81 | 0.0 | ||||||
| 06 | 14:15 | Calm | 4.00 | Fog/Mist | FEW020 BKN026 BKN033 | 78.8 | 77 | 94% | 83 | 29.82 | 0.0 | ||||||
| 06 | 13:55 | Calm | 4.00 | Thunderstorm in Vicinity Rain Fog/Mist | SCT019 BKN029 | 78.8 | 77 | 94% | 83 | 29.83 | 0.0 | ||||||
| 06 | 13:35 | N 7 | 4.00 | Fog/Mist | BKN019 BKN028 | 78.8 | 77 | 94% | 83 | 29.84 | 0.0 | ||||||
| 06 | 13:15 | Calm | 5.00 | Fog/Mist | BKN021 BKN027 | 78.8 | 77 | 94% | 83 | 29.86 | 0.0 | ||||||
| 06 | 12:55 | Calm | 4.00 | Fog/Mist | BKN025 BKN030 | 78.8 | 77 | 94% | 83 | 29.87 | 0.0 | ||||||
| 06 | 12:35 | Calm | 5.00 | Fog/Mist | SCT023 BKN030 | 78.8 | 77 | 94% | 83 | 29.87 | 0.0 | ||||||
| 06 | 12:15 | Calm | 5.00 | Fog/Mist | FEW015 FEW021 BKN027 | 78.8 | 77 | 94% | 83 | 29.88 | 0.0 | ||||||
| 06 | 11:55 | Vrbl 5 | 5.00 | Fog/Mist | BKN015 BKN021 BKN025 | 80.6 | 77 | 89% | 87 | 29.87 | 0.0 | ||||||
| 06 | 11:35 | Calm | 6.00 | Fog/Mist | BKN014 BKN026 | 80.6 | 77 | 89% | 87 | 29.87 | 0.0 | ||||||
| 06 | 11:15 | Vrbl 3 | 6.00 | Fog/Mist | BKN014 BKN018 | 78.8 | 77 | 94% | 83 | 29.87 | 0.0 | ||||||
| 06 | 10:55 | S 5 | 5.00 | Fog/Mist | BKN014 OVC018 | 77 | 75.2 | 94% | 78 | 29.87 | 0.0 | ||||||
| 06 | 10:35 | S 5 | 5.00 | Fog/Mist | BKN013 OVC017 | 77 | 75.2 | 94% | 78 | 29.87 | 0.0 | ||||||
| 06 | 10:15 | SW 6 | 6.00 | Fog/Mist | OVC013 | 77 | 75.2 | 94% | 78 | 29.86 | 0.0 | ||||||
| 06 | 09:55 | S 6 | 6.00 | Fog/Mist | BKN014 BKN023 | 77 | 75.2 | 94% | 78 | 29.85 | 0.0 | ||||||
| 06 | 09:35 | S 5 | 6.00 | Fog/Mist | FEW012 | 77 | 75.2 | 94% | 78 | 29.85 | 0.0 | ||||||
| 06 | 09:15 | Calm | 5.00 | Fog/Mist | FEW012 | 77 | 75.2 | 94% | 78 | 29.85 | 0.0 | ||||||
| 06 | 08:55 | S 6 | 5.00 | Fog/Mist | FEW012 FEW039 | 77 | 75.2 | 94% | 78 | 29.85 | 0.0 | ||||||
| 06 | 08:35 | S 6 | 4.00 | Fog/Mist | FEW007 SCT013 SCT039 | 75.2 | 75.2 | 100% | 73 | 29.85 | 0.0 | ||||||
| 06 | 08:15 | S 5 | 4.00 | Fog/Mist | SCT006 SCT013 SCT041 | 75.2 | 75.2 | 100% | 73 | 29.85 | 0.0 | ||||||
| 06 | 07:55 | S 3 | 4.00 | Fog/Mist | FEW006 SCT014 BKN042 | 75.2 | 75.2 | 100% | 73 | 29.85 | 0.0 | ||||||
| 06 | 07:35 | Calm | 3.00 | Fog/Mist | FEW006 OVC040 | 73.4 | 73.4 | 100% | 29.84 | 0.0 | |||||||
| 06 | 07:15 | Calm | 3.00 | Fog/Mist | SCT006 SCT013 BKN040 | 73.4 | 73.4 | 100% | 29.84 | 0.0 | |||||||
| 06 | 06:35 | Calm | 4.00 | Fog/Mist | BKN008 BKN012 OVC039 | 73.4 | 73.4 | 100% | 29.82 | 0.0 | |||||||
| 06 | 06:15 | Calm | 6.00 | Fog/Mist | FEW008 SCT012 OVC038 | 73.4 | 73.4 | 100% | 29.82 | 0.0 | |||||||
| 06 | 05:55 | Calm | 6.00 | Fog/Mist | SCT009 BKN019 OVC037 | 73.4 | 73.4 | 100% | 29.82 | 0.0 | |||||||
| 06 | 05:35 | Calm | 6.00 | Fog/Mist | BKN009 OVC015 | 73.4 | 73.4 | 100% | 29.82 | 0.0 | |||||||
| 06 | 05:15 | S 5 | 6.00 | Fog/Mist | SCT010 BKN015 OVC037 | 73.4 | 73.4 | 100% | 29.81 | 0.0 | |||||||
| 06 | 04:55 | S 6 | 6.00 | Fog/Mist | FEW011 FEW016 OVC035 | 73.4 | 73.4 | 100% | 29.81 | 0.0 | |||||||
| 06 | 04:35 | Vrbl 5 | 6.00 | Fog/Mist | SCT011 OVC033 | 73.4 | 73.4 | 100% | 29.8 | 0.0 | |||||||
| 06 | 04:15 | Vrbl 5 | 6.00 | Fog/Mist | BKN012 OVC039 | 73.4 | 73.4 | 100% | 29.8 | 0.0 | |||||||
| 06 | 03:55 | S 5 | 6.00 | Fog/Mist | FEW009 SCT013 OVC038 | 73.4 | 73.4 | 100% | 29.81 | 0.0 | |||||||
| 06 | 03:35 | S 7 | 6.00 | Fog/Mist | OVC037 | 73.4 | 73.4 | 100% | 29.8 | 0.0 | |||||||
| 06 | 03:15 | S 7 | 6.00 | Fog/Mist | BKN038 OVC055 | 73.4 | 73.4 | 100% | 29.81 | 0.0 | |||||||
| 06 | 02:55 | S 6 | 7.00 | Overcast | BKN038 OVC050 | 73.4 | 73.4 | 100% | 29.81 | 0.0 | |||||||
| 06 | 02:35 | S 7 G 14 | 7.00 | Overcast | SCT014 OVC037 | 75.2 | 73.4 | 94% | 74 | 29.82 | 0.0 | ||||||
| 06 | 02:15 | S 7 G 13 | 6.00 | Fog/Mist | NULL | 75.2 | 73.4 | 94% | 74 | 29.82 | 0.0 | ||||||
| 06 | 01:55 | S 7 | 6.00 | Fog/Mist | NULL | 75.2 | 73.4 | 94% | 74 | 29.83 | 0.0 | ||||||
| 06 | 01:35 | S 6 | 7.00 | Overcast | BKN013 OVC017 | 75.2 | 73.4 | 94% | 74 | 29.82 | 0.0 | ||||||
| 06 | 01:15 | S 6 | 5.00 | Fog/Mist | NULL | 75.2 | 73.4 | 94% | 74 | 29.82 | 0.0 | ||||||
| 06 | 00:55 | S 9 | 7.00 | NULL | NULL | 75.2 | 73.4 | 94% | 74 | 29.82 | 0.0 | ||||||
| 06 | 00:35 | S 8 | 7.00 | NULL | NULL | 75.2 | 73.4 | 94% | 74 | 29.83 | 0.0 | ||||||
| 06 | 00:15 | S 8 | 7.00 | NULL | NULL | 75.2 | 73.4 | 94% | 74 | 29.82 | 0.0 | ||||||
| 05 | 23:55 | S 8 | 8.00 | NULL | NULL | 75.2 | 73.4 | 94% | 74 | 29.82 | 0.0 | ||||||
| 05 | 23:35 | S 8 | 7.00 | NULL | NULL | 75.2 | 73.4 | 94% | 74 | 29.82 | 0.0 | ||||||
| 05 | 23:15 | S 6 G 13 | 7.00 | NULL | NULL | 75.2 | 73.4 | 94% | 74 | 29.82 | 0.0 | ||||||
| 05 | 22:55 | S 6 | 8.00 | NULL | NULL | 75.2 | 73.4 | 94% | 74 | 29.82 | 0.0 | ||||||
| 05 | 22:35 | S 9 | 8.00 | Overcast | FEW016 OVC044 | 75.2 | 73.4 | 94% | 74 | 29.81 | 0.0 | ||||||
| 05 | 22:15 | S 7 G 15 | 8.00 | Overcast | OVC043 | 75.2 | 73.4 | 94% | 74 | 29.8 | 0.0 | ||||||
| 05 | 21:55 | S 10 | 8.00 | Overcast | FEW015 OVC043 | 75.2 | 73.4 | 94% | 74 | 29.8 | 0.0 | ||||||
| 05 | 21:35 | S 10 G 17 | 9.00 | Overcast | FEW015 OVC044 | 75.2 | 73.4 | 94% | 74 | 29.79 | 0.0 | ||||||
| 05 | 21:15 | S 8 | 9.00 | Overcast | FEW018 OVC044 | 75.2 | 73.4 | 94% | 74 | 29.78 | 0.0 | ||||||
| 05 | 20:55 | S 9 G 16 | 9.00 | NULL | NULL | 77 | 73.4 | 89% | 78 | 29.77 | 0.0 | ||||||
| 05 | 20:35 | S 9 | 9.00 | NULL | NULL | 77 | 73.4 | 89% | 78 | 29.76 | 0.0 | ||||||
| 05 | 20:15 | S 10 | 9.00 | Overcast | SCT020 BKN025 OVC045 | 77 | 75.2 | 94% | 78 | 29.76 | 0.0 | ||||||
| 05 | 19:55 | S 9 | 8.00 | Overcast | BKN019 BKN026 OVC046 | 77 | 75.2 | 94% | 78 | 29.76 | 0.0 | ||||||
| 05 | 19:35 | Calm | 8.00 | Overcast | BKN019 OVC025 | 77 | 75.2 | 94% | 78 | 29.75 | 0.0 | ||||||
| 05 | 19:15 | S 9 | 8.00 | Overcast | BKN018 OVC024 | 77 | 75.2 | 94% | 78 | 29.75 | 0.0 | ||||||
| 05 | 18:55 | Calm | 8.00 | Overcast | SCT019 BKN024 OVC049 | 78.8 | 75.2 | 89% | 82 | 29.75 | 0.0 | ||||||
| 05 | 18:35 | S 8 G 14 | 9.00 | Mostly Cloudy | SCT022 SCT028 BKN049 | 78.8 | 75.2 | 89% | 82 | 29.76 | 0.0 | ||||||
| 05 | 18:15 | Calm | 9.00 | Mostly Cloudy | FEW020 SCT028 BKN050 | 78.8 | 75.2 | 89% | 82 | 29.75 | 0.0 | ||||||
| 05 | 17:55 | S 10 G 17 | 9.00 | Mostly Cloudy | BKN050 | 80.6 | 75.2 | 84% | 86 | 29.75 | 0.0 | ||||||
| 05 | 17:35 | S 10 G 17 | 9.00 | Mostly Cloudy | SCT021 BKN028 BKN049 | 80.6 | 75.2 | 84% | 86 | 29.75 | 0.0 | ||||||
| 05 | 17:15 | S 10 G 23 | 10.00 | Mostly Cloudy | SCT022 BKN028 BKN035 | 80.6 | 75.2 | 84% | 86 | 29.75 | 0.0 | ||||||
| 05 | 16:55 | S 13 G 18 | 10.00 | Mostly Cloudy | FEW021 SCT027 BKN049 | 80.6 | 75.2 | 84% | 86 | 29.76 | 0.0 | ||||||
| 05 | 16:35 | Calm | 10.00 | Mostly Cloudy | FEW020 SCT030 BKN049 | 80.6 | 75.2 | 84% | 86 | 29.76 | 0.0 | ||||||
| 05 | 16:15 | S 12 G 18 | 10.00 | Mostly Cloudy | SCT021 BKN029 BKN047 | 80.6 | 75.2 | 84% | 86 | 29.77 | 0.0 | ||||||
| 05 | 15:55 | S 13 G 22 | 10.00 | Mostly Cloudy | SCT021 BKN028 BKN050 | 80.6 | 73.4 | 79% | 85 | 29.78 | 0.0 | ||||||
| 05 | 15:35 | S 13 G 20 | 10.00 | Mostly Cloudy | SCT022 BKN028 BKN050 | 80.6 | 75.2 | 84% | 86 | 29.78 | 0.0 | ||||||
| 05 | 15:15 | S 14 G 23 | 10.00 | Mostly Cloudy | BKN020 BKN025 BKN030 | 80.6 | 73.4 | 79% | 85 | 29.79 | 0.0 | ||||||
| 05 | 14:55 | S 15 | 10.00 | Mostly Cloudy | BKN020 BKN028 BKN034 | 78.8 | 73.4 | 84% | 82 | 29.8 | 0.0 | ||||||
| 05 | 14:35 | S 16 | 10.00 | Mostly Cloudy | SCT020 BKN029 BKN037 | 80.6 | 75.2 | 84% | 86 | 29.8 | 0.0 | ||||||
| 05 | 14:15 | S 16 | 9.00 | Mostly Cloudy | BKN019 BKN024 BKN028 | 78.8 | 73.4 | 84% | 82 | 29.8 | 0.0 | ||||||
| 05 | 13:55 | S 10 G 21 | 9.00 | Overcast | SCT018 BKN022 OVC047 | 78.8 | 73.4 | 84% | 82 | 29.81 | 0.0 | ||||||
| 05 | 13:35 | S 10 | 10.00 | Mostly Cloudy | FEW017 SCT040 BKN046 | 80.6 | 73.4 | 79% | 85 | 29.8 | 0.0 | ||||||
| 05 | 13:15 | SW 9 G 20 | 9.00 | Overcast | BKN017 BKN021 OVC042 | 77 | 73.4 | 89% | 78 | 29.81 | 0.0 | ||||||
| 05 | 12:55 | S 10 G 17 | 9.00 | Overcast | BKN017 BKN021 OVC026 | 77 | 73.4 | 89% | 78 | 29.82 | 0.0 | ||||||
| 05 | 12:35 | SW 16 G 23 | 10.00 | Mostly Cloudy | BKN026 BKN034 BKN042 | 77 | 73.4 | 89% | 78 | 29.81 | 0.0 | ||||||
| 05 | 12:15 | S 16 G 22 | 7.00 | Mostly Cloudy | BKN017 BKN021 BKN026 | 77 | 73.4 | 89% | 78 | 29.82 | 0.0 | ||||||
| 05 | 11:55 | SW 10 | 9.00 | Overcast | BKN019 OVC025 | 75.2 | 71.6 | 89% | 75 | 29.83 | 0.0 | ||||||
| 05 | 11:35 | S 12 | 10.00 | Overcast | SCT018 BKN024 OVC029 | 77 | 71.6 | 83% | 78 | 29.83 | 0.0 | ||||||
| 05 | 11:15 | S 14 | 9.00 | Overcast | OVC021 | 75.2 | 71.6 | 89% | 75 | 29.82 | 0.0 | ||||||
| 05 | 10:35 | S 12 G 20 | 10.00 | Overcast | FEW021 BKN029 OVC037 | 75.2 | 71.6 | 89% | 75 | 29.82 | 0.0 | ||||||
| 05 | 10:15 | S 9 G 23 | 10.00 | Overcast | FEW020 BKN032 OVC038 | 75.2 | 71.6 | 89% | 75 | 29.82 | 0.0 | ||||||
| 05 | 09:55 | S 12 G 23 | 10.00 | Overcast | FEW018 OVC032 | 75.2 | 71.6 | 89% | 75 | 29.82 | 0.0 | ||||||
| 05 | 09:35 | S 12 G 17 | 9.00 | Overcast | FEW018 OVC033 | 75.2 | 71.6 | 89% | 75 | 29.82 | 0.0 | ||||||
| 05 | 09:15 | S 9 | 9.00 | Overcast | SCT014 OVC032 | 73.4 | 69.8 | 89% | 29.82 | 0.0 | |||||||
| 05 | 08:55 | Calm | 9.00 | Overcast | FEW014 OVC028 | 71.6 | 69.8 | 94% | 29.83 | 0.0 | |||||||
| 05 | 08:35 | S 8 | 9.00 | Overcast | OVC028 | 71.6 | 69.8 | 94% | 29.81 | 0.0 | |||||||
| 05 | 08:15 | S 10 | 9.00 | Overcast | OVC032 | 71.6 | 69.8 | 94% | 29.82 | 0.0 | |||||||
| 05 | 07:55 | S 12 | 10.00 | Overcast | OVC033 | 69.8 | 69.8 | 100% | 29.81 | 0.0 | |||||||
| 05 | 07:35 | S 9 | 10.00 | Overcast | OVC033 | 69.8 | 68 | 94% | 29.81 | 0.0 | |||||||
| 05 | 07:15 | S 10 | 10.00 | Overcast | OVC034 | 69.8 | 68 | 94% | 29.8 | 0.0 | |||||||
| 05 | 06:55 | S 8 G 18 | 10.00 | Overcast | OVC033 | 69.8 | 68 | 94% | 29.8 | 0.0 | |||||||
| 05 | 06:35 | S 8 G 17 | 10.00 | Overcast | OVC032 | 69.8 | 68 | 94% | 29.79 | 0.0 | |||||||
| Date | Time (cdt) | Wind (mph) | Vis. (mi.) | Weather | Sky Cond. | Air | Dwpt | Max. | Min. | Relative Humidity | Wind Chill (°F) | Heat Index (°F) | altimeter (in) | sea level (mb) | 1 hr | 3 hr | 6 hr |
| 6 hour | |||||||||||||||||
| Temperature (ºF) | Pressure | Precipitation (in) | |||||||||||||||